createdAt,value
2019-02-26T00:00:49.672Z,13.93
2019-02-26T00:03:19.867Z,11.40
2019-02-26T00:05:49.865Z,7.97
2019-02-26T00:08:19.479Z,7.83
2019-02-26T00:10:46.342Z,8.60
2019-02-26T00:13:14.134Z,7.63
2019-02-26T00:15:43.242Z,10.90
2019-02-26T00:18:11.721Z,18.27
2019-02-26T00:20:41.395Z,13.57
2019-02-26T00:23:09.194Z,17.60
2019-02-26T00:25:37.064Z,14.47
2019-02-26T00:28:05.425Z,22.63
2019-02-26T00:30:35.565Z,19.77
2019-02-26T00:33:05.159Z,12.03
2019-02-26T00:35:32.381Z,13.90
2019-02-26T00:37:59.897Z,17.10
2019-02-26T00:40:27.368Z,15.97
2019-02-26T00:42:57.554Z,14.60
2019-02-26T00:45:26.973Z,13.20
2019-02-26T00:47:53.936Z,13.67
2019-02-26T00:50:21.252Z,9.90
2019-02-26T00:52:48.615Z,10.23
2019-02-26T00:55:17.702Z,11.33
2019-02-26T00:57:45.210Z,9.23
2019-02-26T01:00:13.462Z,9.73
2019-02-26T01:02:40.886Z,10.90
2019-02-26T01:05:09.142Z,12.50
2019-02-26T01:07:38.000Z,10.63
2019-02-26T01:10:05.952Z,8.60
2019-02-26T01:12:37.104Z,9.10
2019-02-26T01:15:04.947Z,12.53
2019-02-26T01:17:33.380Z,9.23
2019-02-26T01:20:05.363Z,8.70
2019-02-26T01:22:33.071Z,11.83
2019-02-26T01:25:02.129Z,12.43
2019-02-26T01:27:29.807Z,9.77
2019-02-26T01:29:58.155Z,11.43
2019-02-26T01:32:27.548Z,8.13
2019-02-26T01:34:54.906Z,9.43
2019-02-26T01:37:22.269Z,6.43
2019-02-26T01:39:51.739Z,8.33
2019-02-26T01:42:24.240Z,13.47
2019-02-26T01:44:49.201Z,8.60
2019-02-26T01:47:17.809Z,13.13
2019-02-26T01:49:48.442Z,9.20
2019-02-26T01:52:17.281Z,11.40
2019-02-26T01:54:45.549Z,8.03
2019-02-26T01:57:12.983Z,12.23
2019-02-26T01:59:40.655Z,10.38
2019-02-26T02:02:12.158Z,6.77
2019-02-26T02:04:39.352Z,7.50
2019-02-26T02:07:06.852Z,8.97
2019-02-26T02:09:34.348Z,8.07
2019-02-26T02:12:03.894Z,9.53
2019-02-26T02:14:31.782Z,6.50
2019-02-26T02:17:00.887Z,9.30
2019-02-26T02:19:30.189Z,7.00
2019-02-26T02:21:58.331Z,8.17
2019-02-26T02:24:26.092Z,9.83
2019-02-26T02:26:55.481Z,7.60
2019-02-26T02:29:24.546Z,7.57
2019-02-26T02:31:54.651Z,19.17
2019-02-26T02:34:26.494Z,9.50
2019-02-26T02:36:52.622Z,11.00
2019-02-26T02:39:20.950Z,15.10
2019-02-26T02:41:51.653Z,8.03
2019-02-26T02:44:20.574Z,5.87
2019-02-26T02:46:49.306Z,5.73
2019-02-26T02:49:17.958Z,11.57
2019-02-26T02:51:45.518Z,4.87
2019-02-26T02:54:15.344Z,8.10
2019-02-26T02:56:44.256Z,7.20
2019-02-26T02:59:14.000Z,7.70
2019-02-26T03:01:42.596Z,7.47
2019-02-26T03:04:17.285Z,4.33
2019-02-26T03:06:42.705Z,4.90
2019-02-26T03:09:15.296Z,5.00
2019-02-26T03:11:46.046Z,8.53
2019-02-26T03:14:13.836Z,7.67
2019-02-26T03:16:45.023Z,6.90
2019-02-26T03:19:14.505Z,6.90
2019-02-26T03:21:42.578Z,6.30
2019-02-26T03:24:11.465Z,4.93
2019-02-26T03:26:38.833Z,5.57
2019-02-26T03:29:06.190Z,6.40
2019-02-26T03:31:35.226Z,7.90
2019-02-26T03:34:08.739Z,4.75
2019-02-26T03:36:34.236Z,4.03
2019-02-26T03:39:03.301Z,4.80
2019-02-26T03:41:33.016Z,4.43
2019-02-26T03:44:03.256Z,4.47
2019-02-26T03:46:30.085Z,7.47
2019-02-26T03:49:02.508Z,5.37
2019-02-26T03:51:27.389Z,5.55
2019-02-26T03:53:54.895Z,4.92
2019-02-26T03:56:22.703Z,4.62
2019-02-26T03:58:54.475Z,6.90
2019-02-26T04:01:21.585Z,7.67
2019-02-26T04:03:49.300Z,4.05
2019-02-26T04:06:17.024Z,5.08
2019-02-26T04:08:46.194Z,5.00
2019-02-26T04:11:16.536Z,4.65
2019-02-26T04:13:46.085Z,4.60
2019-02-26T04:16:13.208Z,6.25
2019-02-26T04:18:40.992Z,8.05
2019-02-26T04:21:09.358Z,12.30
2019-02-26T04:23:38.955Z,8.98
2019-02-26T04:26:20.885Z,5.58
2019-02-26T04:28:53.903Z,6.60
2019-02-26T04:32:15.185Z,5.35
2019-02-26T04:34:57.607Z,5.12
2019-02-26T04:38:15.028Z,9.05
2019-02-26T04:41:03.044Z,2.85
2019-02-26T04:44:12.553Z,3.20
2019-02-26T04:46:57.123Z,6.05
2019-02-26T04:49:28.103Z,3.47
2019-02-26T04:51:55.328Z,2.70
2019-02-26T04:54:26.349Z,2.47
2019-02-26T04:56:53.023Z,2.85
2019-02-26T04:59:20.677Z,7.92
2019-02-26T05:01:49.912Z,3.25
2019-02-26T05:04:18.548Z,2.77
2019-02-26T05:06:46.048Z,3.47
2019-02-26T05:09:13.748Z,3.27
2019-02-26T05:11:41.475Z,5.75
2019-02-26T05:14:11.606Z,4.22
2019-02-26T05:16:40.341Z,4.90
2019-02-26T05:19:10.407Z,4.78
2019-02-26T05:21:37.943Z,4.00
2019-02-26T05:24:05.687Z,3.92
2019-02-26T05:26:33.906Z,3.47
2019-02-26T05:29:03.069Z,2.70
2019-02-26T05:31:33.176Z,6.58
2019-02-26T05:34:00.222Z,12.28
2019-02-26T05:36:28.391Z,12.05
2019-02-26T05:38:59.163Z,16.80
2019-02-26T05:41:25.950Z,16.57
2019-02-26T05:44:12.899Z,17.73
2019-02-26T05:46:41.010Z,12.30
2019-02-26T05:49:11.768Z,11.05
2019-02-26T05:51:38.529Z,13.78
2019-02-26T05:54:08.070Z,12.63
2019-02-26T05:56:37.230Z,10.05
2019-02-26T05:59:09.080Z,12.05
2019-02-26T06:01:34.878Z,8.70
2019-02-26T06:04:04.841Z,7.05
2019-02-26T06:06:32.281Z,5.60
2019-02-26T06:09:00.445Z,9.38
2019-02-26T06:11:34.041Z,11.53
2019-02-26T06:14:06.676Z,17.52
2019-02-26T06:16:31.532Z,23.60
2019-02-26T06:18:59.490Z,24.55
2019-02-26T06:21:26.993Z,13.43
2019-02-26T06:23:54.452Z,10.00
2019-02-26T06:26:22.503Z,9.13
2019-02-26T06:28:52.834Z,6.58
2019-02-26T06:31:22.123Z,4.20
2019-02-26T06:33:50.722Z,9.55
2019-02-26T06:36:19.367Z,5.22
2019-02-26T06:38:49.714Z,3.80
2019-02-26T06:41:18.199Z,3.12
2019-02-26T06:43:49.967Z,4.17
2019-02-26T06:46:16.679Z,4.37
2019-02-26T06:48:44.363Z,8.45
2019-02-26T06:51:11.884Z,6.83
2019-02-26T06:53:40.356Z,11.22
2019-02-26T06:56:08.080Z,5.97
2019-02-26T06:58:36.224Z,9.13
2019-02-26T07:01:04.804Z,8.35
2019-02-26T07:03:32.578Z,11.57
2019-02-26T07:06:03.163Z,5.30
2019-02-26T07:08:31.041Z,7.00
2019-02-26T07:10:59.101Z,9.08
2019-02-26T07:13:26.820Z,9.00
2019-02-26T07:15:55.383Z,9.53
2019-02-26T07:18:22.842Z,7.97
2019-02-26T07:20:54.566Z,7.42
2019-02-26T07:23:20.230Z,12.23
2019-02-26T07:25:47.722Z,13.45
2019-02-26T07:28:17.676Z,21.20
2019-02-26T07:30:46.933Z,28.27
2019-02-26T07:33:15.663Z,21.35
2019-02-26T07:35:43.243Z,12.93
2019-02-26T07:38:10.754Z,19.55
2019-02-26T07:40:40.406Z,21.77
2019-02-26T07:43:11.548Z,36.50
2019-02-26T07:45:37.271Z,32.00
2019-02-26T07:48:04.617Z,32.30
2019-02-26T07:50:37.480Z,32.83
2019-02-26T07:53:01.787Z,31.25
2019-02-26T07:55:32.231Z,23.90
2019-02-26T07:57:58.567Z,23.70
2019-02-26T08:00:26.316Z,17.30
2019-02-26T08:02:56.973Z,26.27
2019-02-26T08:05:26.285Z,24.27
2019-02-26T08:07:56.286Z,23.98
2019-02-26T08:10:23.131Z,34.75
2019-02-26T08:12:50.622Z,23.42
2019-02-26T08:15:18.128Z,32.70
2019-02-26T08:17:47.890Z,20.20
2019-02-26T08:20:15.186Z,29.77
2019-02-26T08:22:43.064Z,28.07
2019-02-26T08:25:10.853Z,32.33
2019-02-26T08:27:38.876Z,20.05
2019-02-26T08:30:14.832Z,24.67
2019-02-26T08:32:42.508Z,20.17
2019-02-26T08:35:10.934Z,20.95
2019-02-26T08:37:38.496Z,16.50
2019-02-26T08:40:09.552Z,23.15
2019-02-26T08:42:37.319Z,15.13
2019-02-26T08:45:06.775Z,16.45
2019-02-26T08:47:34.873Z,21.97
2019-02-26T08:50:04.735Z,18.42
2019-02-26T08:52:32.070Z,15.35
2019-02-26T08:55:00.237Z,21.42
2019-02-26T08:57:28.096Z,20.57
2019-02-26T08:59:55.652Z,24.43
2019-02-26T09:02:23.015Z,22.43
2019-02-26T09:04:50.775Z,25.97
2019-02-26T09:07:19.557Z,18.23
2019-02-26T09:09:49.587Z,26.20
2019-02-26T09:12:17.516Z,27.48
2019-02-26T09:14:48.113Z,26.40
2019-02-26T09:17:18.779Z,36.70
2019-02-26T09:19:45.385Z,32.65
2019-02-26T09:22:14.961Z,33.70
2019-02-26T09:24:42.105Z,26.05
2019-02-26T09:27:09.475Z,25.02
2019-02-26T09:29:39.257Z,25.45
2019-02-26T09:32:07.338Z,33.00
2019-02-26T09:34:37.979Z,28.23
2019-02-26T09:37:05.784Z,31.87
2019-02-26T09:39:36.389Z,27.17
2019-02-26T09:42:06.056Z,29.07
2019-02-26T09:44:35.754Z,28.80
2019-02-26T09:47:05.443Z,24.63
2019-02-26T09:49:33.724Z,22.83
2019-02-26T09:52:03.815Z,26.17
2019-02-26T09:54:32.290Z,20.57
2019-02-26T09:56:59.957Z,27.00
2019-02-26T09:59:29.025Z,23.33
2019-02-26T10:01:58.791Z,20.33
2019-02-26T10:04:28.785Z,25.53
2019-02-26T10:06:56.228Z,19.20
2019-02-26T10:09:23.727Z,21.37
2019-02-26T10:11:51.575Z,22.83
2019-02-26T10:14:20.295Z,38.10
2019-02-26T10:16:50.063Z,21.10
2019-02-26T10:19:19.521Z,25.27
2019-02-26T10:21:47.205Z,26.80
2019-02-26T10:24:14.682Z,29.03
2019-02-26T10:26:43.341Z,29.80
2019-02-26T10:29:10.910Z,23.80
2019-02-26T10:31:41.072Z,18.97
2019-02-26T10:34:10.581Z,20.10
2019-02-26T10:36:40.663Z,24.40
2019-02-26T10:39:08.471Z,18.43
2019-02-26T10:41:37.533Z,16.67
2019-02-26T10:44:05.997Z,22.00
2019-02-26T10:46:34.606Z,17.87
2019-02-26T10:49:02.746Z,18.03
2019-02-26T10:51:31.227Z,19.03
2019-02-26T10:53:59.952Z,20.07
2019-02-26T10:56:30.578Z,16.67
2019-02-26T10:59:02.932Z,20.40
2019-02-26T11:01:28.752Z,20.50
2019-02-26T11:03:57.570Z,21.80
2019-02-26T11:06:24.948Z,18.63
2019-02-26T11:08:53.123Z,16.63
2019-02-26T11:11:22.000Z,18.63
2019-02-26T11:13:53.242Z,15.83
2019-02-26T11:16:24.872Z,16.30
2019-02-26T11:18:48.320Z,16.93
2019-02-26T11:21:15.783Z,21.20
2019-02-26T11:23:44.053Z,30.23
2019-02-26T11:26:15.222Z,17.90
2019-02-26T11:28:43.601Z,16.10
2019-02-26T11:31:13.943Z,18.47
2019-02-26T11:33:40.967Z,22.50
2019-02-26T11:36:10.657Z,24.23
2019-02-26T11:38:40.340Z,20.10
2019-02-26T11:41:07.934Z,15.97
2019-02-26T11:43:35.705Z,18.13
2019-02-26T11:46:03.818Z,14.90
2019-02-26T11:48:33.232Z,17.70
2019-02-26T11:51:00.994Z,13.53
2019-02-26T11:53:30.305Z,11.57
2019-02-26T11:56:00.034Z,11.97
2019-02-26T11:58:27.548Z,10.63
2019-02-26T12:00:57.461Z,12.53
2019-02-26T12:03:27.482Z,13.20
2019-02-26T12:05:56.624Z,16.00
2019-02-26T12:08:25.751Z,12.77
2019-02-26T12:10:57.515Z,16.93
2019-02-26T12:13:25.091Z,16.97
2019-02-26T12:15:53.124Z,15.10
2019-02-26T12:18:22.490Z,15.30
2019-02-26T12:20:50.169Z,15.23
2019-02-26T12:23:22.071Z,16.17
2019-02-26T12:25:47.152Z,18.33
2019-02-26T12:28:16.069Z,14.30
2019-02-26T12:30:46.120Z,10.73
2019-02-26T12:33:14.818Z,14.60
2019-02-26T12:35:43.633Z,12.37
2019-02-26T12:38:18.019Z,11.67
2019-02-26T12:40:44.680Z,12.67
2019-02-26T12:43:12.528Z,11.80
2019-02-26T12:45:40.830Z,12.20
2019-02-26T12:48:10.263Z,16.37
2019-02-26T12:50:40.471Z,18.53
2019-02-26T12:53:09.478Z,22.00
2019-02-26T12:55:39.115Z,16.53
2019-02-26T12:58:07.328Z,14.33
2019-02-26T13:00:37.662Z,18.33
2019-02-26T13:03:05.565Z,18.83
2019-02-26T13:05:35.227Z,17.83
2019-02-26T13:08:03.713Z,12.50
2019-02-26T13:10:31.360Z,17.57
2019-02-26T13:13:02.330Z,16.27
2019-02-26T13:15:29.458Z,17.90
2019-02-26T13:17:57.250Z,17.63
2019-02-26T13:20:24.787Z,22.63
2019-02-26T13:22:56.518Z,22.97
2019-02-26T13:25:26.390Z,16.40
2019-02-26T13:27:51.669Z,20.70
2019-02-26T13:30:20.463Z,13.70
2019-02-26T13:32:56.048Z,11.10
2019-02-26T13:35:18.381Z,15.10
2019-02-26T13:37:46.605Z,13.40
2019-02-26T13:40:15.383Z,11.70
2019-02-26T13:42:49.935Z,17.20
2019-02-26T13:45:14.942Z,16.00
2019-02-26T13:47:42.530Z,11.50
2019-02-26T13:50:12.369Z,10.83
2019-02-26T13:52:39.757Z,12.87
2019-02-26T13:55:07.980Z,13.43
2019-02-26T13:57:35.479Z,9.97
2019-02-26T14:00:03.594Z,15.23
2019-02-26T14:02:31.504Z,16.53
2019-02-26T14:04:59.395Z,10.03
2019-02-26T14:07:26.737Z,9.80
2019-02-26T14:09:54.094Z,12.97
2019-02-26T14:12:21.455Z,16.00
2019-02-26T14:14:48.833Z,13.50
2019-02-26T14:17:16.572Z,10.33
2019-02-26T14:19:44.041Z,9.80
2019-02-26T14:22:11.688Z,10.50
2019-02-26T14:24:39.055Z,17.97
2019-02-26T14:27:07.013Z,10.73
2019-02-26T14:29:34.510Z,13.60
2019-02-26T14:32:02.559Z,16.60
2019-02-26T14:34:29.864Z,16.77
2019-02-26T14:36:57.474Z,22.53
2019-02-26T14:39:24.973Z,16.67
2019-02-26T14:41:52.684Z,16.50
2019-02-26T14:44:20.166Z,14.73
2019-02-26T14:46:47.695Z,27.00
2019-02-26T14:49:16.484Z,15.80
2019-02-26T14:51:43.947Z,17.97
2019-02-26T14:54:11.439Z,17.13
2019-02-26T14:56:39.036Z,19.27
2019-02-26T14:59:06.567Z,18.23
2019-02-26T15:01:34.069Z,21.00
2019-02-26T15:04:01.445Z,21.13
2019-02-26T15:06:29.327Z,19.93
2019-02-26T15:08:57.195Z,18.07
2019-02-26T15:11:24.552Z,23.43
2019-02-26T15:13:52.007Z,18.37
2019-02-26T15:16:19.731Z,21.30
2019-02-26T15:18:47.198Z,22.53
2019-02-26T15:21:14.695Z,19.73
2019-02-26T15:23:42.176Z,20.33
2019-02-26T15:26:10.175Z,17.40
2019-02-26T15:28:37.701Z,15.40
2019-02-26T15:31:05.150Z,21.20
2019-02-26T15:33:32.627Z,22.77
2019-02-26T15:36:00.012Z,23.00
2019-02-26T15:38:27.803Z,23.23
2019-02-26T15:40:55.583Z,20.53
2019-02-26T15:43:24.522Z,26.63
2019-02-26T15:45:53.111Z,32.80
2019-02-26T15:48:20.472Z,25.03
2019-02-26T15:50:47.883Z,19.03
2019-02-26T15:53:15.280Z,19.77
2019-02-26T15:55:43.581Z,24.90
2019-02-26T15:58:11.674Z,22.03
2019-02-26T16:00:39.590Z,19.63
2019-02-26T16:03:07.445Z,21.03
2019-02-26T16:05:34.967Z,21.90
2019-02-26T16:08:02.879Z,17.53
2019-02-26T16:10:30.922Z,16.70
2019-02-26T16:13:03.627Z,19.90
2019-02-26T16:15:31.874Z,21.03
2019-02-26T16:17:59.667Z,27.23
2019-02-26T16:20:27.393Z,24.77
2019-02-26T16:22:55.260Z,25.65
2019-02-26T16:25:22.758Z,20.23
2019-02-26T16:27:51.662Z,17.70
2019-02-26T16:30:20.442Z,23.10
2019-02-26T16:32:48.931Z,21.17
2019-02-26T16:35:16.807Z,20.87
2019-02-26T16:37:44.149Z,21.13
2019-02-26T16:40:11.777Z,22.17
2019-02-26T16:42:39.669Z,24.57
2019-02-26T16:45:10.650Z,27.17
2019-02-26T16:47:38.677Z,13.27
2019-02-26T16:50:12.898Z,24.70
2019-02-26T16:52:37.570Z,26.03
2019-02-26T16:55:05.592Z,17.93
2019-02-26T16:57:33.182Z,17.20
2019-02-26T17:00:00.868Z,12.00
2019-02-26T17:02:28.395Z,12.90
2019-02-26T17:04:55.919Z,12.93
2019-02-26T17:07:23.682Z,38.67
2019-02-26T17:09:55.466Z,71.83
2019-02-26T17:12:21.921Z,63.60
2019-02-26T17:14:50.670Z,114.20
2019-02-26T17:17:19.139Z,29.97
2019-02-26T17:19:49.093Z,22.63
2019-02-26T17:22:16.745Z,12.00
2019-02-26T17:24:44.264Z,15.07
2019-02-26T17:27:12.013Z,77.40
2019-02-26T17:29:39.816Z,227.40
2019-02-26T17:32:07.131Z,109.63
2019-02-26T17:34:34.910Z,58.80
2019-02-26T17:37:03.854Z,24.90
2019-02-26T17:39:31.673Z,22.57
2019-02-26T17:41:59.829Z,52.37
2019-02-26T17:44:27.609Z,24.60
2019-02-26T17:46:55.511Z,23.53
2019-02-26T17:49:22.836Z,25.10
2019-02-26T17:51:50.464Z,26.70
2019-02-26T17:54:18.459Z,30.73
2019-02-26T17:56:45.853Z,29.10
2019-02-26T17:59:16.622Z,15.97
2019-02-26T18:01:42.689Z,9.67
2019-02-26T18:04:10.320Z,12.70
2019-02-26T18:06:37.835Z,16.17
2019-02-26T18:09:05.355Z,29.20
2019-02-26T18:11:36.539Z,15.43
2019-02-26T18:14:03.987Z,21.93
2019-02-26T18:16:34.373Z,28.60
2019-02-26T18:19:01.823Z,27.17
2019-02-26T18:21:29.795Z,29.37
2019-02-26T18:23:57.166Z,30.70
2019-02-26T18:26:24.937Z,29.93
2019-02-26T18:28:53.203Z,33.23
2019-02-26T18:31:26.396Z,29.03
2019-02-26T18:33:50.250Z,22.33
2019-02-26T18:36:18.042Z,24.20
2019-02-26T18:38:48.324Z,24.07
2019-02-26T18:41:15.189Z,25.57
2019-02-26T18:43:47.172Z,23.57
2019-02-26T18:46:12.742Z,36.03
2019-02-26T18:48:40.876Z,26.57
2019-02-26T18:51:08.446Z,26.30
2019-02-26T18:53:36.266Z,19.00
2019-02-26T18:56:04.788Z,16.43
2019-02-26T18:58:32.708Z,19.67
2019-02-26T19:01:00.195Z,28.23
2019-02-26T19:03:27.697Z,23.77
2019-02-26T19:05:55.942Z,26.93
2019-02-26T19:08:24.492Z,25.77
2019-02-26T19:10:53.304Z,31.57
2019-02-26T19:13:21.651Z,26.87
2019-02-26T19:15:49.139Z,31.77
2019-02-26T19:18:16.570Z,31.53
2019-02-26T19:20:44.417Z,29.23
2019-02-26T19:23:13.487Z,22.87
2019-02-26T19:25:41.720Z,12.53
2019-02-26T19:28:09.936Z,16.90
2019-02-26T19:30:37.607Z,11.57
2019-02-26T19:33:05.209Z,6.53
2019-02-26T19:35:38.134Z,12.50
2019-02-26T19:38:02.344Z,11.73
2019-02-26T19:40:32.952Z,14.27
2019-02-26T19:43:00.541Z,16.27
2019-02-26T19:45:28.327Z,27.70
2019-02-26T19:47:56.830Z,16.33
2019-02-26T19:50:24.561Z,13.73
2019-02-26T19:52:57.022Z,18.47
2019-02-26T19:55:24.232Z,18.30
2019-02-26T19:57:51.920Z,13.17
2019-02-26T20:00:20.533Z,13.30
2019-02-26T20:02:48.812Z,15.70
2019-02-26T20:05:16.621Z,18.97
2019-02-26T20:07:44.170Z,14.60
2019-02-26T20:10:12.851Z,13.97
2019-02-26T20:12:41.887Z,13.70
2019-02-26T20:15:10.710Z,16.00
2019-02-26T20:17:38.469Z,12.17
2019-02-26T20:20:07.221Z,15.33
2019-02-26T20:22:34.783Z,21.47
2019-02-26T20:25:02.557Z,25.33
2019-02-26T20:27:30.032Z,21.37
2019-02-26T20:29:57.692Z,18.67
2019-02-26T20:32:28.781Z,13.90
2019-02-26T20:34:54.960Z,16.03
2019-02-26T20:37:24.425Z,15.33
2019-02-26T20:39:52.436Z,15.83
2019-02-26T20:42:20.015Z,14.07
2019-02-26T20:44:49.152Z,10.30
2019-02-26T20:47:17.061Z,13.00
2019-02-26T20:49:46.307Z,12.97
2019-02-26T20:52:14.129Z,16.30
2019-02-26T20:54:44.456Z,13.87
2019-02-26T20:57:11.414Z,13.60
2019-02-26T20:59:40.370Z,11.37
2019-02-26T21:02:07.904Z,9.60
2019-02-26T21:04:35.575Z,11.87
2019-02-26T21:07:03.094Z,12.60
2019-02-26T21:09:31.114Z,12.90
2019-02-26T21:11:58.908Z,17.50
2019-02-26T21:14:26.562Z,26.10
2019-02-26T21:16:55.761Z,41.50
2019-02-26T21:19:23.927Z,54.57
2019-02-26T21:21:51.466Z,68.67
2019-02-26T21:24:19.250Z,50.57
2019-02-26T21:26:46.793Z,45.67
2019-02-26T21:29:14.161Z,32.37
2019-02-26T21:31:41.528Z,25.13
2019-02-26T21:34:09.333Z,23.60
2019-02-26T21:36:36.768Z,19.00
2019-02-26T21:39:05.583Z,17.90
2019-02-26T21:41:34.940Z,15.03
2019-02-26T21:44:02.614Z,10.77
2019-02-26T21:46:29.987Z,11.63
2019-02-26T21:48:57.592Z,14.30
2019-02-26T21:51:25.705Z,13.63
2019-02-26T21:53:53.439Z,15.27
2019-02-26T21:56:20.939Z,10.10
2019-02-26T21:58:48.872Z,17.80
2019-02-26T22:01:16.238Z,10.70
2019-02-26T22:03:43.610Z,10.30
2019-02-26T22:06:11.574Z,11.50
2019-02-26T22:08:39.510Z,17.53
2019-02-26T22:11:07.366Z,19.07
2019-02-26T22:13:35.111Z,20.50
2019-02-26T22:16:02.493Z,19.70
2019-02-26T22:18:33.364Z,19.07
2019-02-26T22:20:59.693Z,19.70
2019-02-26T22:23:27.298Z,22.10
2019-02-26T22:25:55.406Z,23.23
2019-02-26T22:28:23.214Z,17.17
2019-02-26T22:30:55.656Z,17.67
2019-02-26T22:33:20.682Z,15.80
2019-02-26T22:35:48.058Z,17.10
2019-02-26T22:38:16.104Z,14.47
2019-02-26T22:40:43.728Z,10.83
2019-02-26T22:43:13.427Z,13.60
2019-02-26T22:45:40.871Z,15.70
2019-02-26T22:48:08.711Z,16.90
2019-02-26T22:50:36.551Z,19.07
2019-02-26T22:53:04.589Z,17.57
2019-02-26T22:55:32.564Z,11.40
2019-02-26T22:58:02.567Z,17.03
2019-02-26T23:00:53.521Z,14.27
2019-02-26T23:03:22.766Z,15.73
2019-02-26T23:05:51.795Z,18.77
2019-02-26T23:08:19.355Z,14.43
2019-02-26T23:10:46.984Z,19.40
2019-02-26T23:13:16.404Z,20.57
2019-02-26T23:15:45.864Z,19.07
2019-02-26T23:18:14.824Z,15.37
2019-02-26T23:20:43.366Z,15.03
2019-02-26T23:23:11.553Z,12.90
2019-02-26T23:25:39.014Z,12.30
2019-02-26T23:28:06.722Z,11.80
2019-02-26T23:30:34.549Z,14.33
2019-02-26T23:33:02.293Z,19.43
2019-02-26T23:35:29.948Z,18.13
2019-02-26T23:37:57.622Z,17.70
2019-02-26T23:40:27.486Z,11.03
2019-02-26T23:42:55.338Z,11.77
2019-02-26T23:45:24.131Z,12.20
2019-02-26T23:47:52.589Z,8.90
2019-02-26T23:50:20.246Z,11.57
2019-02-26T23:52:47.712Z,7.23
2019-02-26T23:55:15.619Z,7.70
2019-02-26T23:57:43.066Z,6.00
